sensor_id;sensor_type;location;lat;lon;timestamp;temperature;humidity
15231;DHT22;32569;51.762;8.564;2023-02-22T00:01:15;7.40;99.90
15231;DHT22;32569;51.762;8.564;2023-02-22T00:03:53;7.50;99.90
15231;DHT22;32569;51.762;8.564;2023-02-22T00:06:21;7.40;99.90
15231;DHT22;32569;51.762;8.564;2023-02-22T00:08:49;7.40;99.90
15231;DHT22;32569;51.762;8.564;2023-02-22T00:11:18;7.40;99.90
15231;DHT22;32569;51.762;8.564;2023-02-22T00:13:45;7.40;99.90
15231;DHT22;32569;51.762;8.564;2023-02-22T00:16:15;7.30;99.90
15231;DHT22;32569;51.762;8.564;2023-02-22T00:18:42;7.30;99.90
15231;DHT22;32569;51.762;8.564;2023-02-22T00:21:11;7.40;99.90
15231;DHT22;32569;51.762;8.564;2023-02-22T00:23:40;7.30;99.90
15231;DHT22;32569;51.762;8.564;2023-02-22T00:26:11;7.30;99.90
15231;DHT22;32569;51.762;8.564;2023-02-22T00:28:39;7.20;99.90
15231;DHT22;32569;51.762;8.564;2023-02-22T00:31:07;7.20;99.90
15231;DHT22;32569;51.762;8.564;2023-02-22T00:33:41;7.20;99.90
15231;DHT22;32569;51.762;8.564;2023-02-22T00:36:09;7.10;99.90
15231;DHT22;32569;51.762;8.564;2023-02-22T00:38:36;7.10;99.90
15231;DHT22;32569;51.762;8.564;2023-02-22T00:41:03;7.10;99.90
15231;DHT22;32569;51.762;8.564;2023-02-22T00:43:30;7.00;99.90
15231;DHT22;32569;51.762;8.564;2023-02-22T00:45:58;6.90;99.90
15231;DHT22;32569;51.762;8.564;2023-02-22T00:48:25;6.90;99.90
15231;DHT22;32569;51.762;8.564;2023-02-22T00:50:59;6.80;99.90
15231;DHT22;32569;51.762;8.564;2023-02-22T00:53:28;6.90;99.90
15231;DHT22;32569;51.762;8.564;2023-02-22T00:55:55;6.90;99.90
15231;DHT22;32569;51.762;8.564;2023-02-22T00:58:25;6.80;99.90
15231;DHT22;32569;51.762;8.564;2023-02-22T01:00:51;6.80;99.90
15231;DHT22;32569;51.762;8.564;2023-02-22T01:03:19;6.80;99.90
15231;DHT22;32569;51.762;8.564;2023-02-22T01:05:46;6.80;99.90
15231;DHT22;32569;51.762;8.564;2023-02-22T01:08:14;6.80;99.90
15231;DHT22;32569;51.762;8.564;2023-02-22T01:10:41;6.80;99.90
15231;DHT22;32569;51.762;8.564;2023-02-22T01:13:09;6.80;99.90
15231;DHT22;32569;51.762;8.564;2023-02-22T01:15:38;6.80;99.90
15231;DHT22;32569;51.762;8.564;2023-02-22T01:18:05;6.70;99.90
15231;DHT22;32569;51.762;8.564;2023-02-22T01:20:37;6.70;99.90
15231;DHT22;32569;51.762;8.564;2023-02-22T01:23:04;6.70;99.90
15231;DHT22;32569;51.762;8.564;2023-02-22T01:25:33;6.70;99.90
15231;DHT22;32569;51.762;8.564;2023-02-22T01:28:01;6.70;99.90
15231;DHT22;32569;51.762;8.564;2023-02-22T01:30:30;6.70;99.90
15231;DHT22;32569;51.762;8.564;2023-02-22T01:32:58;6.70;99.90
15231;DHT22;32569;51.762;8.564;2023-02-22T01:35:27;6.70;99.90
15231;DHT22;32569;51.762;8.564;2023-02-22T01:37:56;6.60;99.90
15231;DHT22;32569;51.762;8.564;2023-02-22T01:40:28;6.60;99.90
15231;DHT22;32569;51.762;8.564;2023-02-22T01:43:03;6.50;99.90
15231;DHT22;32569;51.762;8.564;2023-02-22T01:45:44;6.50;99.90
15231;DHT22;32569;51.762;8.564;2023-02-22T01:48:17;6.50;99.90
15231;DHT22;32569;51.762;8.564;2023-02-22T01:50:48;6.50;99.90
15231;DHT22;32569;51.762;8.564;2023-02-22T01:53:20;6.50;99.90
15231;DHT22;32569;51.762;8.564;2023-02-22T01:55:48;6.40;99.90
15231;DHT22;32569;51.762;8.564;2023-02-22T01:58:18;6.40;99.90
15231;DHT22;32569;51.762;8.564;2023-02-22T02:00:45;6.30;99.90
15231;DHT22;32569;51.762;8.564;2023-02-22T02:03:15;6.20;99.90
15231;DHT22;32569;51.762;8.564;2023-02-22T02:05:43;6.20;99.90
15231;DHT22;32569;51.762;8.564;2023-02-22T02:08:22;6.20;99.90
15231;DHT22;32569;51.762;8.564;2023-02-22T02:10:52;6.20;99.90
15231;DHT22;32569;51.762;8.564;2023-02-22T02:13:20;6.10;99.90
15231;DHT22;32569;51.762;8.564;2023-02-22T02:15:46;6.10;99.90
15231;DHT22;32569;51.762;8.564;2023-02-22T02:18:14;6.00;99.90
15231;DHT22;32569;51.762;8.564;2023-02-22T02:20:51;5.90;99.90
15231;DHT22;32569;51.762;8.564;2023-02-22T02:23:37;5.90;99.90
15231;DHT22;32569;51.762;8.564;2023-02-22T02:26:56;6.00;99.90
15231;DHT22;32569;51.762;8.564;2023-02-22T02:29:46;5.90;99.90
15231;DHT22;32569;51.762;8.564;2023-02-22T02:32:25;5.90;99.90
15231;DHT22;32569;51.762;8.564;2023-02-22T02:34:58;5.90;99.90
15231;DHT22;32569;51.762;8.564;2023-02-22T02:37:32;5.90;99.90
15231;DHT22;32569;51.762;8.564;2023-02-22T02:40:10;5.80;99.90
15231;DHT22;32569;51.762;8.564;2023-02-22T02:42:41;5.80;99.90
15231;DHT22;32569;51.762;8.564;2023-02-22T02:45:12;5.80;99.90
15231;DHT22;32569;51.762;8.564;2023-02-22T02:47:44;5.80;99.90
15231;DHT22;32569;51.762;8.564;2023-02-22T02:50:16;5.70;99.90
15231;DHT22;32569;51.762;8.564;2023-02-22T02:52:45;5.70;99.90
15231;DHT22;32569;51.762;8.564;2023-02-22T02:55:13;5.80;99.90
15231;DHT22;32569;51.762;8.564;2023-02-22T02:57:40;5.70;99.90
15231;DHT22;32569;51.762;8.564;2023-02-22T03:00:08;5.70;99.90
15231;DHT22;32569;51.762;8.564;2023-02-22T03:02:57;5.60;99.90
15231;DHT22;32569;51.762;8.564;2023-02-22T03:05:50;5.30;99.90
15231;DHT22;32569;51.762;8.564;2023-02-22T03:08:27;5.30;99.90
15231;DHT22;32569;51.762;8.564;2023-02-22T03:11:01;5.40;99.90
15231;DHT22;32569;51.762;8.564;2023-02-22T03:13:34;5.50;99.90
15231;DHT22;32569;51.762;8.564;2023-02-22T03:16:14;5.40;99.90
15231;DHT22;32569;51.762;8.564;2023-02-22T03:18:49;5.40;99.90
15231;DHT22;32569;51.762;8.564;2023-02-22T03:21:24;5.40;99.90
15231;DHT22;32569;51.762;8.564;2023-02-22T03:24:00;5.40;99.90
15231;DHT22;32569;51.762;8.564;2023-02-22T03:26:33;5.40;99.90
15231;DHT22;32569;51.762;8.564;2023-02-22T03:29:01;5.20;99.90
15231;DHT22;32569;51.762;8.564;2023-02-22T03:31:32;5.10;99.90
15231;DHT22;32569;51.762;8.564;2023-02-22T03:34:06;5.20;99.90
15231;DHT22;32569;51.762;8.564;2023-02-22T03:36:35;5.30;99.90
15231;DHT22;32569;51.762;8.564;2023-02-22T03:39:07;5.10;99.90
15231;DHT22;32569;51.762;8.564;2023-02-22T03:41:39;5.10;99.90
15231;DHT22;32569;51.762;8.564;2023-02-22T03:44:11;5.20;99.90
15231;DHT22;32569;51.762;8.564;2023-02-22T03:46:40;5.20;99.90
15231;DHT22;32569;51.762;8.564;2023-02-22T03:49:13;5.20;99.90
15231;DHT22;32569;51.762;8.564;2023-02-22T03:51:42;5.20;99.90
15231;DHT22;32569;51.762;8.564;2023-02-22T03:54:09;5.20;99.90
15231;DHT22;32569;51.762;8.564;2023-02-22T03:56:44;5.00;99.90
15231;DHT22;32569;51.762;8.564;2023-02-22T03:59:14;5.10;99.90
15231;DHT22;32569;51.762;8.564;2023-02-22T04:01:41;5.00;99.90
15231;DHT22;32569;51.762;8.564;2023-02-22T04:04:09;4.90;99.90
15231;DHT22;32569;51.762;8.564;2023-02-22T04:06:36;4.80;99.90
15231;DHT22;32569;51.762;8.564;2023-02-22T04:09:03;4.80;99.90
15231;DHT22;32569;51.762;8.564;2023-02-22T04:11:29;4.90;99.90
15231;DHT22;32569;51.762;8.564;2023-02-22T04:13:59;4.90;99.90
15231;DHT22;32569;51.762;8.564;2023-02-22T04:16:25;4.90;99.90
15231;DHT22;32569;51.762;8.564;2023-02-22T04:18:52;4.90;99.90
15231;DHT22;32569;51.762;8.564;2023-02-22T04:21:20;4.90;99.90
15231;DHT22;32569;51.762;8.564;2023-02-22T04:23:47;5.00;99.90
15231;DHT22;32569;51.762;8.564;2023-02-22T04:26:13;4.90;99.90
15231;DHT22;32569;51.762;8.564;2023-02-22T04:28:40;4.90;99.90
15231;DHT22;32569;51.762;8.564;2023-02-22T04:31:07;4.90;99.90
15231;DHT22;32569;51.762;8.564;2023-02-22T04:33:34;4.80;99.90
15231;DHT22;32569;51.762;8.564;2023-02-22T04:36:01;4.90;99.90
15231;DHT22;32569;51.762;8.564;2023-02-22T04:38:29;5.10;99.90
15231;DHT22;32569;51.762;8.564;2023-02-22T04:40:58;5.20;99.90
15231;DHT22;32569;51.762;8.564;2023-02-22T04:43:25;5.40;99.90
15231;DHT22;32569;51.762;8.564;2023-02-22T04:45:51;5.50;99.90
15231;DHT22;32569;51.762;8.564;2023-02-22T04:48:18;5.50;99.90
15231;DHT22;32569;51.762;8.564;2023-02-22T04:50:45;5.60;99.90
15231;DHT22;32569;51.762;8.564;2023-02-22T04:53:12;5.60;99.90
15231;DHT22;32569;51.762;8.564;2023-02-22T04:55:42;5.70;99.90
15231;DHT22;32569;51.762;8.564;2023-02-22T04:58:09;5.70;99.90
15231;DHT22;32569;51.762;8.564;2023-02-22T05:00:35;5.60;99.90
15231;DHT22;32569;51.762;8.564;2023-02-22T05:03:02;5.60;99.90
15231;DHT22;32569;51.762;8.564;2023-02-22T05:05:29;5.50;99.90
15231;DHT22;32569;51.762;8.564;2023-02-22T05:07:55;5.40;99.90
15231;DHT22;32569;51.762;8.564;2023-02-22T05:10:22;5.40;99.90
15231;DHT22;32569;51.762;8.564;2023-02-22T05:12:50;5.30;99.90
15231;DHT22;32569;51.762;8.564;2023-02-22T05:15:18;5.20;99.90
15231;DHT22;32569;51.762;8.564;2023-02-22T05:17:54;5.10;99.90
15231;DHT22;32569;51.762;8.564;2023-02-22T05:20:23;5.10;99.90
15231;DHT22;32569;51.762;8.564;2023-02-22T05:22:49;5.00;99.90
15231;DHT22;32569;51.762;8.564;2023-02-22T05:25:19;5.00;99.90
15231;DHT22;32569;51.762;8.564;2023-02-22T05:27:50;4.80;99.90
15231;DHT22;32569;51.762;8.564;2023-02-22T05:30:24;4.80;99.90
15231;DHT22;32569;51.762;8.564;2023-02-22T05:32:51;4.80;99.90
15231;DHT22;32569;51.762;8.564;2023-02-22T05:35:18;4.80;99.90
15231;DHT22;32569;51.762;8.564;2023-02-22T05:37:45;4.80;99.90
15231;DHT22;32569;51.762;8.564;2023-02-22T05:40:13;4.80;99.90
15231;DHT22;32569;51.762;8.564;2023-02-22T05:42:39;4.80;99.90
15231;DHT22;32569;51.762;8.564;2023-02-22T05:45:10;4.80;99.90
15231;DHT22;32569;51.762;8.564;2023-02-22T05:47:37;4.80;99.90
15231;DHT22;32569;51.762;8.564;2023-02-22T05:50:04;4.80;99.90
15231;DHT22;32569;51.762;8.564;2023-02-22T05:52:31;4.70;99.90
15231;DHT22;32569;51.762;8.564;2023-02-22T05:54:58;4.60;99.90
15231;DHT22;32569;51.762;8.564;2023-02-22T05:57:24;4.50;99.90
15231;DHT22;32569;51.762;8.564;2023-02-22T05:59:51;4.40;99.90
15231;DHT22;32569;51.762;8.564;2023-02-22T06:02:19;4.30;99.90
15231;DHT22;32569;51.762;8.564;2023-02-22T06:04:46;4.30;99.90
15231;DHT22;32569;51.762;8.564;2023-02-22T06:07:13;4.30;99.90
15231;DHT22;32569;51.762;8.564;2023-02-22T06:09:40;4.40;99.90
15231;DHT22;32569;51.762;8.564;2023-02-22T06:12:07;4.50;99.90
15231;DHT22;32569;51.762;8.564;2023-02-22T06:14:34;4.60;99.90
15231;DHT22;32569;51.762;8.564;2023-02-22T06:17:01;4.70;99.90
15231;DHT22;32569;51.762;8.564;2023-02-22T06:19:31;4.70;99.90
15231;DHT22;32569;51.762;8.564;2023-02-22T06:21:57;4.80;99.90
15231;DHT22;32569;51.762;8.564;2023-02-22T06:24:27;4.80;99.90
15231;DHT22;32569;51.762;8.564;2023-02-22T06:26:54;4.90;99.90
15231;DHT22;32569;51.762;8.564;2023-02-22T06:29:21;5.00;99.90
15231;DHT22;32569;51.762;8.564;2023-02-22T06:31:48;5.00;99.90
15231;DHT22;32569;51.762;8.564;2023-02-22T06:34:14;4.90;99.90
15231;DHT22;32569;51.762;8.564;2023-02-22T06:36:43;4.90;99.90
15231;DHT22;32569;51.762;8.564;2023-02-22T06:39:12;5.10;99.90
15231;DHT22;32569;51.762;8.564;2023-02-22T06:41:41;5.10;99.90
15231;DHT22;32569;51.762;8.564;2023-02-22T06:44:08;5.20;99.90
15231;DHT22;32569;51.762;8.564;2023-02-22T06:46:35;5.20;99.90
15231;DHT22;32569;51.762;8.564;2023-02-22T06:49:03;5.30;99.90
15231;DHT22;32569;51.762;8.564;2023-02-22T06:51:33;5.30;99.90
15231;DHT22;32569;51.762;8.564;2023-02-22T06:54:02;5.40;99.90
15231;DHT22;32569;51.762;8.564;2023-02-22T06:56:30;5.40;99.90
15231;DHT22;32569;51.762;8.564;2023-02-22T06:58:57;5.40;99.90
15231;DHT22;32569;51.762;8.564;2023-02-22T07:01:25;5.40;99.90
15231;DHT22;32569;51.762;8.564;2023-02-22T07:03:52;5.30;99.90
15231;DHT22;32569;51.762;8.564;2023-02-22T07:06:19;5.30;99.90
15231;DHT22;32569;51.762;8.564;2023-02-22T07:08:47;5.40;99.90
15231;DHT22;32569;51.762;8.564;2023-02-22T07:11:16;5.50;99.90
15231;DHT22;32569;51.762;8.564;2023-02-22T07:13:43;5.50;99.90
15231;DHT22;32569;51.762;8.564;2023-02-22T07:16:10;5.50;99.90
15231;DHT22;32569;51.762;8.564;2023-02-22T07:18:36;5.60;99.90
15231;DHT22;32569;51.762;8.564;2023-02-22T07:21:04;5.80;99.90
15231;DHT22;32569;51.762;8.564;2023-02-22T07:23:32;5.80;99.90
15231;DHT22;32569;51.762;8.564;2023-02-22T07:25:59;6.00;99.90
15231;DHT22;32569;51.762;8.564;2023-02-22T07:28:27;6.10;99.90
15231;DHT22;32569;51.762;8.564;2023-02-22T07:30:54;6.20;99.90
15231;DHT22;32569;51.762;8.564;2023-02-22T07:33:20;6.20;99.90
15231;DHT22;32569;51.762;8.564;2023-02-22T07:35:49;6.30;99.90
15231;DHT22;32569;51.762;8.564;2023-02-22T07:38:18;6.30;99.90
15231;DHT22;32569;51.762;8.564;2023-02-22T07:40:45;6.40;99.90
15231;DHT22;32569;51.762;8.564;2023-02-22T07:43:14;6.50;99.90
15231;DHT22;32569;51.762;8.564;2023-02-22T07:45:43;6.50;99.90
15231;DHT22;32569;51.762;8.564;2023-02-22T07:48:10;6.60;99.90
15231;DHT22;32569;51.762;8.564;2023-02-22T07:50:38;6.70;99.90
15231;DHT22;32569;51.762;8.564;2023-02-22T07:53:06;6.70;99.90
15231;DHT22;32569;51.762;8.564;2023-02-22T07:55:35;6.80;99.90
15231;DHT22;32569;51.762;8.564;2023-02-22T07:58:04;6.90;99.90
15231;DHT22;32569;51.762;8.564;2023-02-22T08:00:33;6.90;99.90
15231;DHT22;32569;51.762;8.564;2023-02-22T08:03:03;6.90;99.90
15231;DHT22;32569;51.762;8.564;2023-02-22T08:05:31;7.00;99.90
15231;DHT22;32569;51.762;8.564;2023-02-22T08:07:58;7.10;99.90
15231;DHT22;32569;51.762;8.564;2023-02-22T08:10:25;7.10;99.90
15231;DHT22;32569;51.762;8.564;2023-02-22T08:12:53;7.10;99.90
15231;DHT22;32569;51.762;8.564;2023-02-22T08:15:22;7.20;99.90
15231;DHT22;32569;51.762;8.564;2023-02-22T08:17:49;7.20;99.90
15231;DHT22;32569;51.762;8.564;2023-02-22T08:20:18;7.30;99.90
15231;DHT22;32569;51.762;8.564;2023-02-22T08:22:45;7.30;99.90
15231;DHT22;32569;51.762;8.564;2023-02-22T08:25:12;7.40;99.90
15231;DHT22;32569;51.762;8.564;2023-02-22T08:27:40;7.50;99.90
15231;DHT22;32569;51.762;8.564;2023-02-22T08:30:12;7.60;99.90
15231;DHT22;32569;51.762;8.564;2023-02-22T08:32:40;7.70;99.90
15231;DHT22;32569;51.762;8.564;2023-02-22T08:35:07;7.80;99.90
15231;DHT22;32569;51.762;8.564;2023-02-22T08:37:35;7.90;99.90
15231;DHT22;32569;51.762;8.564;2023-02-22T08:40:01;8.00;99.90
15231;DHT22;32569;51.762;8.564;2023-02-22T08:42:28;8.10;99.90
15231;DHT22;32569;51.762;8.564;2023-02-22T08:44:55;8.20;99.90
15231;DHT22;32569;51.762;8.564;2023-02-22T08:47:21;8.30;99.90
15231;DHT22;32569;51.762;8.564;2023-02-22T08:49:48;8.30;99.90
15231;DHT22;32569;51.762;8.564;2023-02-22T08:52:14;8.50;99.90
15231;DHT22;32569;51.762;8.564;2023-02-22T08:54:44;8.60;99.90
15231;DHT22;32569;51.762;8.564;2023-02-22T08:57:10;8.60;99.90
15231;DHT22;32569;51.762;8.564;2023-02-22T08:59:37;8.70;99.90
15231;DHT22;32569;51.762;8.564;2023-02-22T09:02:04;8.70;99.90
15231;DHT22;32569;51.762;8.564;2023-02-22T09:04:31;8.80;99.90
15231;DHT22;32569;51.762;8.564;2023-02-22T09:06:57;9.00;99.90
15231;DHT22;32569;51.762;8.564;2023-02-22T09:09:24;9.00;99.90
15231;DHT22;32569;51.762;8.564;2023-02-22T09:11:52;9.10;99.90
15231;DHT22;32569;51.762;8.564;2023-02-22T09:14:19;9.30;99.90
15231;DHT22;32569;51.762;8.564;2023-02-22T09:16:45;9.30;99.90
15231;DHT22;32569;51.762;8.564;2023-02-22T09:19:12;9.40;99.90
15231;DHT22;32569;51.762;8.564;2023-02-22T09:21:39;9.40;99.90
15231;DHT22;32569;51.762;8.564;2023-02-22T09:24:06;9.50;99.90
15231;DHT22;32569;51.762;8.564;2023-02-22T09:26:34;9.60;99.90
15231;DHT22;32569;51.762;8.564;2023-02-22T09:29:05;9.70;99.90
15231;DHT22;32569;51.762;8.564;2023-02-22T09:31:34;9.70;99.90
15231;DHT22;32569;51.762;8.564;2023-02-22T09:34:02;9.90;99.90
15231;DHT22;32569;51.762;8.564;2023-02-22T09:36:28;9.90;99.90
15231;DHT22;32569;51.762;8.564;2023-02-22T09:38:55;10.00;99.90
15231;DHT22;32569;51.762;8.564;2023-02-22T09:41:25;10.10;99.90
15231;DHT22;32569;51.762;8.564;2023-02-22T09:44:13;10.30;99.90
15231;DHT22;32569;51.762;8.564;2023-02-22T09:46:43;10.30;99.90
15231;DHT22;32569;51.762;8.564;2023-02-22T09:49:17;10.40;99.90
15231;DHT22;32569;51.762;8.564;2023-02-22T09:51:49;10.50;99.90
15231;DHT22;32569;51.762;8.564;2023-02-22T09:54:21;10.50;99.90
15231;DHT22;32569;51.762;8.564;2023-02-22T09:56:51;10.50;99.90
15231;DHT22;32569;51.762;8.564;2023-02-22T09:59:26;10.60;99.90
15231;DHT22;32569;51.762;8.564;2023-02-22T10:01:58;10.60;99.90
15231;DHT22;32569;51.762;8.564;2023-02-22T10:04:36;10.70;99.90
15231;DHT22;32569;51.762;8.564;2023-02-22T10:07:14;10.80;99.90
15231;DHT22;32569;51.762;8.564;2023-02-22T10:09:44;10.80;99.90
15231;DHT22;32569;51.762;8.564;2023-02-22T10:12:14;10.90;99.90
15231;DHT22;32569;51.762;8.564;2023-02-22T10:18:12;10.90;99.90
15231;DHT22;32569;51.762;8.564;2023-02-22T10:20:49;11.10;99.90
15231;DHT22;32569;51.762;8.564;2023-02-22T10:23:23;11.20;99.90
15231;DHT22;32569;51.762;8.564;2023-02-22T10:25:58;11.20;99.90
15231;DHT22;32569;51.762;8.564;2023-02-22T10:28:32;11.20;99.90
15231;DHT22;32569;51.762;8.564;2023-02-22T10:31:04;11.40;99.90
15231;DHT22;32569;51.762;8.564;2023-02-22T10:33:35;11.50;99.90
15231;DHT22;32569;51.762;8.564;2023-02-22T10:36:03;11.60;99.90
15231;DHT22;32569;51.762;8.564;2023-02-22T10:38:32;11.50;99.90
15231;DHT22;32569;51.762;8.564;2023-02-22T10:41:07;11.60;99.90
15231;DHT22;32569;51.762;8.564;2023-02-22T10:43:42;11.60;99.90
15231;DHT22;32569;51.762;8.564;2023-02-22T10:46:12;11.60;99.90
15231;DHT22;32569;51.762;8.564;2023-02-22T10:48:42;11.70;99.90
15231;DHT22;32569;51.762;8.564;2023-02-22T10:51:10;11.80;99.90
15231;DHT22;32569;51.762;8.564;2023-02-22T10:53:38;11.90;99.90
15231;DHT22;32569;51.762;8.564;2023-02-22T10:56:10;12.00;99.90
15231;DHT22;32569;51.762;8.564;2023-02-22T10:58:48;12.00;99.90
15231;DHT22;32569;51.762;8.564;2023-02-22T11:01:24;12.00;99.90
15231;DHT22;32569;51.762;8.564;2023-02-22T11:04:01;12.00;99.90
15231;DHT22;32569;51.762;8.564;2023-02-22T11:06:29;12.00;99.90
15231;DHT22;32569;51.762;8.564;2023-02-22T11:09:05;12.10;99.90
15231;DHT22;32569;51.762;8.564;2023-02-22T11:11:39;12.30;99.90
15231;DHT22;32569;51.762;8.564;2023-02-22T11:14:07;12.30;99.90
15231;DHT22;32569;51.762;8.564;2023-02-22T11:16:38;12.50;99.90
15231;DHT22;32569;51.762;8.564;2023-02-22T11:19:11;12.40;99.90
15231;DHT22;32569;51.762;8.564;2023-02-22T11:21:42;12.40;99.90
15231;DHT22;32569;51.762;8.564;2023-02-22T11:24:11;12.50;99.90
15231;DHT22;32569;51.762;8.564;2023-02-22T11:26:40;12.60;99.90
15231;DHT22;32569;51.762;8.564;2023-02-22T11:29:11;12.70;99.90
15231;DHT22;32569;51.762;8.564;2023-02-22T11:31:44;12.70;99.90
15231;DHT22;32569;51.762;8.564;2023-02-22T11:34:32;12.80;99.90
15231;DHT22;32569;51.762;8.564;2023-02-22T11:37:17;12.90;99.90
15231;DHT22;32569;51.762;8.564;2023-02-22T11:39:44;12.90;99.90
15231;DHT22;32569;51.762;8.564;2023-02-22T11:42:20;12.90;99.90
15231;DHT22;32569;51.762;8.564;2023-02-22T11:44:48;12.90;99.90
15231;DHT22;32569;51.762;8.564;2023-02-22T11:47:34;13.00;99.90
15231;DHT22;32569;51.762;8.564;2023-02-22T11:50:01;13.10;99.90
15231;DHT22;32569;51.762;8.564;2023-02-22T11:52:39;13.10;99.90
15231;DHT22;32569;51.762;8.564;2023-02-22T11:55:15;13.10;99.90
15231;DHT22;32569;51.762;8.564;2023-02-22T11:57:56;13.10;99.90
15231;DHT22;32569;51.762;8.564;2023-02-22T12:00:31;13.10;99.90
15231;DHT22;32569;51.762;8.564;2023-02-22T12:03:19;13.30;99.90
15231;DHT22;32569;51.762;8.564;2023-02-22T12:06:02;13.30;99.90
15231;DHT22;32569;51.762;8.564;2023-02-22T12:08:41;13.30;99.90
15231;DHT22;32569;51.762;8.564;2023-02-22T12:11:14;13.30;99.90
15231;DHT22;32569;51.762;8.564;2023-02-22T12:13:57;13.20;99.90
15231;DHT22;32569;51.762;8.564;2023-02-22T12:16:31;13.30;99.90
15231;DHT22;32569;51.762;8.564;2023-02-22T12:19:10;13.30;99.90
15231;DHT22;32569;51.762;8.564;2023-02-22T12:21:42;13.40;99.90
15231;DHT22;32569;51.762;8.564;2023-02-22T12:24:13;13.40;99.90
15231;DHT22;32569;51.762;8.564;2023-02-22T12:26:43;13.40;99.90
15231;DHT22;32569;51.762;8.564;2023-02-22T12:29:26;13.40;99.90
15231;DHT22;32569;51.762;8.564;2023-02-22T12:31:56;13.40;99.90
15231;DHT22;32569;51.762;8.564;2023-02-22T12:34:30;13.40;99.90
15231;DHT22;32569;51.762;8.564;2023-02-22T12:37:04;13.40;99.90
15231;DHT22;32569;51.762;8.564;2023-02-22T12:39:40;13.40;99.90
15231;DHT22;32569;51.762;8.564;2023-02-22T12:42:13;13.40;99.90
15231;DHT22;32569;51.762;8.564;2023-02-22T12:44:45;13.40;99.90
15231;DHT22;32569;51.762;8.564;2023-02-22T12:47:16;13.40;99.90
15231;DHT22;32569;51.762;8.564;2023-02-22T12:49:50;13.30;99.90
15231;DHT22;32569;51.762;8.564;2023-02-22T12:52:27;13.30;99.90
15231;DHT22;32569;51.762;8.564;2023-02-22T12:55:03;13.30;99.90
15231;DHT22;32569;51.762;8.564;2023-02-22T12:57:37;13.30;99.90
15231;DHT22;32569;51.762;8.564;2023-02-22T13:00:13;13.30;99.90
15231;DHT22;32569;51.762;8.564;2023-02-22T13:02:44;13.30;99.90
15231;DHT22;32569;51.762;8.564;2023-02-22T13:05:15;13.30;99.90
15231;DHT22;32569;51.762;8.564;2023-02-22T13:07:49;13.40;99.90
15231;DHT22;32569;51.762;8.564;2023-02-22T13:10:25;13.40;99.90
15231;DHT22;32569;51.762;8.564;2023-02-22T13:13:00;13.40;99.90
15231;DHT22;32569;51.762;8.564;2023-02-22T13:15:34;13.40;99.90
15231;DHT22;32569;51.762;8.564;2023-02-22T13:18:09;13.50;99.90
15231;DHT22;32569;51.762;8.564;2023-02-22T13:20:44;13.60;99.90
15231;DHT22;32569;51.762;8.564;2023-02-22T13:23:17;13.60;99.90
15231;DHT22;32569;51.762;8.564;2023-02-22T13:25:52;13.60;99.90
15231;DHT22;32569;51.762;8.564;2023-02-22T13:28:28;13.70;99.90
15231;DHT22;32569;51.762;8.564;2023-02-22T13:31:08;13.70;99.90
15231;DHT22;32569;51.762;8.564;2023-02-22T13:33:52;13.70;99.90
15231;DHT22;32569;51.762;8.564;2023-02-22T13:36:34;13.80;99.90
15231;DHT22;32569;51.762;8.564;2023-02-22T13:39:18;13.80;99.90
15231;DHT22;32569;51.762;8.564;2023-02-22T13:42:01;13.90;99.90
15231;DHT22;32569;51.762;8.564;2023-02-22T13:48:14;14.00;99.90
15231;DHT22;32569;51.762;8.564;2023-02-22T13:51:04;13.90;99.90
15231;DHT22;32569;51.762;8.564;2023-02-22T13:53:40;13.90;99.90
15231;DHT22;32569;51.762;8.564;2023-02-22T13:56:09;13.90;99.90
15231;DHT22;32569;51.762;8.564;2023-02-22T13:58:47;14.00;99.90
15231;DHT22;32569;51.762;8.564;2023-02-22T14:01:36;13.90;99.90
15231;DHT22;32569;51.762;8.564;2023-02-22T14:04:37;13.90;99.90
15231;DHT22;32569;51.762;8.564;2023-02-22T14:10:45;13.90;99.90
15231;DHT22;32569;51.762;8.564;2023-02-22T14:13:13;13.90;99.90
15231;DHT22;32569;51.762;8.564;2023-02-22T14:16:17;14.00;99.90
15231;DHT22;32569;51.762;8.564;2023-02-22T14:18:46;13.90;99.90
15231;DHT22;32569;51.762;8.564;2023-02-22T14:21:15;13.80;99.90
15231;DHT22;32569;51.762;8.564;2023-02-22T14:23:45;13.90;99.90
15231;DHT22;32569;51.762;8.564;2023-02-22T14:26:16;13.90;99.90
15231;DHT22;32569;51.762;8.564;2023-02-22T14:28:52;13.80;99.90
15231;DHT22;32569;51.762;8.564;2023-02-22T14:31:22;13.80;99.90
15231;DHT22;32569;51.762;8.564;2023-02-22T14:33:55;13.80;99.90
15231;DHT22;32569;51.762;8.564;2023-02-22T14:36:25;13.80;99.90
15231;DHT22;32569;51.762;8.564;2023-02-22T14:38:56;13.80;99.90
15231;DHT22;32569;51.762;8.564;2023-02-22T14:41:28;13.80;99.90
15231;DHT22;32569;51.762;8.564;2023-02-22T14:43:56;13.80;99.90
15231;DHT22;32569;51.762;8.564;2023-02-22T14:46:26;13.80;99.90
15231;DHT22;32569;51.762;8.564;2023-02-22T14:48:59;13.80;99.90
15231;DHT22;32569;51.762;8.564;2023-02-22T14:51:29;13.80;99.90
15231;DHT22;32569;51.762;8.564;2023-02-22T14:54:02;13.70;99.90
15231;DHT22;32569;51.762;8.564;2023-02-22T14:56:38;13.70;99.90
15231;DHT22;32569;51.762;8.564;2023-02-22T14:59:15;13.80;99.90
15231;DHT22;32569;51.762;8.564;2023-02-22T15:01:44;13.80;99.90
15231;DHT22;32569;51.762;8.564;2023-02-22T15:04:20;13.80;99.90
15231;DHT22;32569;51.762;8.564;2023-02-22T15:06:48;13.80;99.90
15231;DHT22;32569;51.762;8.564;2023-02-22T15:09:18;13.80;99.90
15231;DHT22;32569;51.762;8.564;2023-02-22T15:11:50;13.80;99.90
15231;DHT22;32569;51.762;8.564;2023-02-22T15:14:20;13.80;99.90
15231;DHT22;32569;51.762;8.564;2023-02-22T15:16:52;13.80;99.90
15231;DHT22;32569;51.762;8.564;2023-02-22T15:19:24;13.90;99.90
15231;DHT22;32569;51.762;8.564;2023-02-22T15:21:54;13.80;99.90
15231;DHT22;32569;51.762;8.564;2023-02-22T15:24:23;13.80;99.90
15231;DHT22;32569;51.762;8.564;2023-02-22T15:26:52;13.80;99.90
15231;DHT22;32569;51.762;8.564;2023-02-22T15:29:21;13.70;99.90
15231;DHT22;32569;51.762;8.564;2023-02-22T15:31:49;13.80;99.90
15231;DHT22;32569;51.762;8.564;2023-02-22T15:34:19;13.70;99.90
15231;DHT22;32569;51.762;8.564;2023-02-22T15:36:50;13.70;99.90
15231;DHT22;32569;51.762;8.564;2023-02-22T15:39:20;13.80;99.90
15231;DHT22;32569;51.762;8.564;2023-02-22T15:42:01;13.70;99.90
15231;DHT22;32569;51.762;8.564;2023-02-22T15:44:28;13.70;99.90
15231;DHT22;32569;51.762;8.564;2023-02-22T15:46:59;13.50;99.90
15231;DHT22;32569;51.762;8.564;2023-02-22T15:49:26;13.40;99.90
15231;DHT22;32569;51.762;8.564;2023-02-22T15:52:05;13.40;99.90
15231;DHT22;32569;51.762;8.564;2023-02-22T15:54:42;13.40;99.90
15231;DHT22;32569;51.762;8.564;2023-02-22T15:57:14;13.40;99.90
15231;DHT22;32569;51.762;8.564;2023-02-22T15:59:45;13.30;99.90
15231;DHT22;32569;51.762;8.564;2023-02-22T16:02:22;13.30;99.90
15231;DHT22;32569;51.762;8.564;2023-02-22T16:04:58;13.30;99.90
15231;DHT22;32569;51.762;8.564;2023-02-22T16:07:25;13.10;99.90
15231;DHT22;32569;51.762;8.564;2023-02-22T16:09:52;13.20;99.90
15231;DHT22;32569;51.762;8.564;2023-02-22T16:12:26;13.10;99.90
15231;DHT22;32569;51.762;8.564;2023-02-22T16:14:53;13.00;99.90